Current Weather

El Centro Naf (Vraciu Fld)

El Centro, California (KNJK)

Report from: Thursday, July 18, 2024 6:56 AM PDT
Current time: Thursday, July 18, 2024 7:52 AM PDT

Nearby weather – Weather history – Daily summaries
Weather forecast

Temperature30.0°C (86.0°F)
Heat index32.7°C (90.9°F)
Dew point21.1°C (70.0°F)
Winds 5 kts (2.6 m/s, 5.8 mph) East-Southeast (110°)
Visibility10 mi. (16.1 km)
Clouds Few clouds 14,000 ft. (4,267 m)
Altimeter29.82 in.Hg (1010 mB)
Relative humidity59 %
Density altitude2,122 ft. (647 m)
Sea-level pressure101.1 kPa (1011 mB, 29.86 in.Hg)
Remarks System requires maintenance
Automated weather observing station with precipitation discriminator
Flight conditions Visual Meteorological Conditions
Raw dataKNJK 181356Z 11005KT 10SM FEW140 30/21 A2982 RMK AO2 SLP113 T03000211 $
An error has occurred. This application may no longer respond until reloaded. Reload 🗙